THY1DH LTFM-LICC
Flight info
| Callsign | THY1DH |
|---|---|
| Flight time | N/A |
| Altitude | 34000 |
| Route | BARPE UM603 SUTIS DCT RUTOM/N0465F330 DCT DODEL/N0418F190 Q72 PIMOR/N0394F150 |
| Aircraft | B738/M-SADE1E2E3FGHIJ1RWYZ/LB1 |
Departure
| Time | 2026-02-17 15:09 |
|---|---|
| Airport | İstanbul Airport (LTFM) |
Arrival
| Time | N/A |
|---|---|
| Airport | Catania-Fontanarossa Airport (LICC) |
| Time | Latitude | Longitude | Altitude | Speed | Heading |
|---|---|---|---|---|---|
| 2026-02-17 14:08 | 41.26698 | 28.73793 | 333 ft | 0 kts | 269° |
| 2026-02-17 14:49 | 41.26698 | 28.73792 | 333 ft | 0 kts | 269° |
| 2026-02-17 14:57 | 41.26698 | 28.73799 | 333 ft | 2 kts | 269° |
| 2026-02-17 14:57 | 41.26698 | 28.73820 | 332 ft | 2 kts | 269° |
| 2026-02-17 14:57 | 41.26699 | 28.73842 | 330 ft | 2 kts | 269° |
| 2026-02-17 14:57 | 41.26702 | 28.73863 | 329 ft | 2 kts | 229° |
| 2026-02-17 14:58 | 41.26715 | 28.73875 | 330 ft | 2 kts | 188° |
| 2026-02-17 14:58 | 41.26731 | 28.73875 | 331 ft | 2 kts | 180° |
| 2026-02-17 14:58 | 41.26733 | 28.73875 | 331 ft | 0 kts | 180° |
| 2026-02-17 15:00 | 41.26731 | 28.73875 | 331 ft | 1 kts | 180° |
| 2026-02-17 15:00 | 41.26710 | 28.73876 | 330 ft | 5 kts | 180° |
| 2026-02-17 15:00 | 41.26656 | 28.73877 | 330 ft | 10 kts | 179° |
| 2026-02-17 15:00 | 41.26584 | 28.73882 | 333 ft | 10 kts | 161° |
| 2026-02-17 15:01 | 41.26561 | 28.73964 | 331 ft | 10 kts | 90° |
| 2026-02-17 15:01 | 41.26603 | 28.74022 | 332 ft | 10 kts | 2° |
| 2026-02-17 15:01 | 41.26647 | 28.74022 | 330 ft | 10 kts | 358° |
| 2026-02-17 15:01 | 41.26759 | 28.74019 | 332 ft | 15 kts | 0° |
| 2026-02-17 15:02 | 41.26879 | 28.74018 | 332 ft | 19 kts | 359° |
| 2026-02-17 15:02 | 41.26965 | 28.74058 | 330 ft | 13 kts | 69° |
| 2026-02-17 15:02 | 41.26969 | 28.74190 | 333 ft | 17 kts | 89° |
| 2026-02-17 15:03 | 41.26972 | 28.74453 | 333 ft | 17 kts | 88° |
| 2026-02-17 15:03 | 41.26974 | 28.74629 | 332 ft | 21 kts | 89° |
| 2026-02-17 15:03 | 41.26977 | 28.74841 | 333 ft | 23 kts | 89° |
| 2026-02-17 15:03 | 41.26980 | 28.75048 | 333 ft | 22 kts | 89° |
| 2026-02-17 15:04 | 41.26982 | 28.75251 | 330 ft | 22 kts | 88° |
| 2026-02-17 15:04 | 41.27018 | 28.75371 | 332 ft | 13 kts | 15° |
| 2026-02-17 15:04 | 41.27113 | 28.75370 | 331 ft | 17 kts | 358° |
| 2026-02-17 15:04 | 41.27268 | 28.75368 | 331 ft | 28 kts | 359° |
| 2026-02-17 15:05 | 41.27482 | 28.75361 | 330 ft | 32 kts | 359° |
| 2026-02-17 15:05 | 41.27699 | 28.75358 | 332 ft | 30 kts | 359° |
| 2026-02-17 15:05 | 41.27903 | 28.75353 | 331 ft | 28 kts | 358° |
| 2026-02-17 15:05 | 41.28095 | 28.75348 | 330 ft | 27 kts | 359° |
| 2026-02-17 15:06 | 41.28277 | 28.75344 | 331 ft | 26 kts | 358° |
| 2026-02-17 15:06 | 41.28471 | 28.75338 | 331 ft | 30 kts | 359° |
| 2026-02-17 15:06 | 41.28674 | 28.75332 | 330 ft | 28 kts | 359° |
| 2026-02-17 15:07 | 41.28980 | 28.75345 | 333 ft | 12 kts | 44° |
| 2026-02-17 15:07 | 41.28992 | 28.75425 | 333 ft | 5 kts | 90° |
| 2026-02-17 15:07 | 41.28992 | 28.75455 | 333 ft | 1 kts | 89° |
| 2026-02-17 15:07 | 41.28992 | 28.75456 | 333 ft | 0 kts | 89° |
| 2026-02-17 15:08 | 41.28993 | 28.75470 | 333 ft | 4 kts | 89° |
| 2026-02-17 15:08 | 41.28993 | 28.75529 | 333 ft | 9 kts | 88° |
| 2026-02-17 15:08 | 41.28956 | 28.75618 | 333 ft | 15 kts | 167° |
| 2026-02-17 15:09 | 41.28648 | 28.75626 | 330 ft | 80 kts | 179° |
| 2026-02-17 15:09 | 41.27869 | 28.75640 | 335 ft | 141 kts | 179° |
| 2026-02-17 15:09 | 41.26838 | 28.75660 | 927 ft | 147 kts | 178° |
| 2026-02-17 15:09 | 41.25873 | 28.76053 | 1716 ft | 150 kts | 153° |
| 2026-02-17 15:10 | 41.24983 | 28.76830 | 2246 ft | 160 kts | 153° |
| 2026-02-17 15:10 | 41.23961 | 28.77663 | 2503 ft | 180 kts | 157° |
| 2026-02-17 15:10 | 41.22820 | 28.78516 | 2716 ft | 199 kts | 155° |
| 2026-02-17 15:11 | 41.20281 | 28.80630 | 3307 ft | 227 kts | 152° |
| 2026-02-17 15:11 | 41.18927 | 28.81695 | 3936 ft | 228 kts | 163° |
| 2026-02-17 15:11 | 41.17370 | 28.81892 | 4518 ft | 230 kts | 192° |
| 2026-02-17 15:11 | 41.15967 | 28.80951 | 5108 ft | 239 kts | 220° |
| 2026-02-17 15:12 | 41.14978 | 28.79202 | 5804 ft | 244 kts | 234° |
| 2026-02-17 15:12 | 41.14122 | 28.77249 | 6488 ft | 249 kts | 236° |
| 2026-02-17 15:12 | 41.13330 | 28.75173 | 7155 ft | 257 kts | 246° |
| 2026-02-17 15:12 | 41.12966 | 28.72808 | 7901 ft | 263 kts | 255° |
| 2026-02-17 15:13 | 41.12704 | 28.70375 | 8645 ft | 268 kts | 256° |
| 2026-02-17 15:13 | 41.12454 | 28.67940 | 9349 ft | 272 kts | 256° |
| 2026-02-17 15:13 | 41.12197 | 28.65442 | 10065 ft | 274 kts | 256° |
| 2026-02-17 15:13 | 41.11935 | 28.62928 | 10776 ft | 276 kts | 256° |
| 2026-02-17 15:14 | 41.11664 | 28.60375 | 11330 ft | 285 kts | 256° |
| 2026-02-17 15:14 | 41.11378 | 28.57733 | 11927 ft | 292 kts | 256° |
| 2026-02-17 15:14 | 41.11084 | 28.55033 | 12570 ft | 298 kts | 256° |
| 2026-02-17 15:15 | 41.10483 | 28.49538 | 13805 ft | 303 kts | 256° |
| 2026-02-17 15:15 | 41.10182 | 28.46799 | 14383 ft | 304 kts | 256° |
| 2026-02-17 15:15 | 41.09875 | 28.44021 | 14973 ft | 304 kts | 256° |
| 2026-02-17 15:15 | 41.09568 | 28.41250 | 15587 ft | 304 kts | 256° |
| 2026-02-17 15:16 | 41.09260 | 28.38494 | 16206 ft | 309 kts | 256° |
| 2026-02-17 15:16 | 41.08940 | 28.35646 | 16851 ft | 314 kts | 256° |
| 2026-02-17 15:16 | 41.08614 | 28.32756 | 17510 ft | 318 kts | 256° |
| 2026-02-17 15:16 | 41.08284 | 28.29828 | 18121 ft | 322 kts | 256° |
| 2026-02-17 15:17 | 41.07942 | 28.26820 | 18355 ft | 339 kts | 257° |
| 2026-02-17 15:17 | 41.07584 | 28.23695 | 18490 ft | 356 kts | 257° |
| 2026-02-17 15:17 | 41.07206 | 28.20398 | 18629 ft | 373 kts | 257° |
| 2026-02-17 15:17 | 41.06810 | 28.16922 | 19026 ft | 380 kts | 257° |
| 2026-02-17 15:18 | 41.06416 | 28.13444 | 19629 ft | 381 kts | 257° |
| 2026-02-17 15:18 | 41.06022 | 28.09964 | 20282 ft | 382 kts | 257° |
| 2026-02-17 15:18 | 41.05628 | 28.06501 | 20872 ft | 383 kts | 257° |
| 2026-02-17 15:19 | 41.04823 | 27.99495 | 21968 ft | 388 kts | 256° |
| 2026-02-17 15:19 | 41.04415 | 27.95958 | 22511 ft | 390 kts | 256° |
| 2026-02-17 15:19 | 41.04000 | 27.92383 | 23028 ft | 392 kts | 256° |
| 2026-02-17 15:19 | 41.03583 | 27.88802 | 23479 ft | 394 kts | 256° |
| 2026-02-17 15:20 | 41.03161 | 27.85183 | 23934 ft | 395 kts | 256° |
| 2026-02-17 15:20 | 41.02746 | 27.81631 | 24371 ft | 397 kts | 256° |
| 2026-02-17 15:20 | 41.02321 | 27.78010 | 24789 ft | 398 kts | 256° |
| 2026-02-17 15:20 | 41.01891 | 27.74360 | 25212 ft | 400 kts | 256° |
| 2026-02-17 15:21 | 41.01462 | 27.70719 | 25607 ft | 402 kts | 256° |
| 2026-02-17 15:21 | 41.01027 | 27.67043 | 26017 ft | 404 kts | 256° |
| 2026-02-17 15:21 | 41.00597 | 27.63416 | 26384 ft | 406 kts | 256° |
| 2026-02-17 15:21 | 41.00152 | 27.59680 | 26737 ft | 408 kts | 256° |
| 2026-02-17 15:22 | 40.99707 | 27.55952 | 27111 ft | 410 kts | 256° |
| 2026-02-17 15:22 | 40.99260 | 27.52209 | 27450 ft | 412 kts | 256° |
| 2026-02-17 15:22 | 40.98809 | 27.48453 | 27802 ft | 413 kts | 256° |
| 2026-02-17 15:23 | 40.97911 | 27.40989 | 28735 ft | 410 kts | 255° |
| 2026-02-17 15:23 | 40.97465 | 27.37281 | 29324 ft | 406 kts | 255° |
| 2026-02-17 15:23 | 40.97019 | 27.33602 | 29751 ft | 405 kts | 255° |
| 2026-02-17 15:23 | 40.96568 | 27.29900 | 30065 ft | 405 kts | 255° |
| 2026-02-17 15:24 | 40.96123 | 27.26257 | 30392 ft | 405 kts | 255° |
| 2026-02-17 15:24 | 40.95672 | 27.22576 | 30806 ft | 403 kts | 255° |
| 2026-02-17 15:24 | 40.95224 | 27.18914 | 31229 ft | 401 kts | 255° |
| 2026-02-17 15:24 | 40.94777 | 27.15280 | 31604 ft | 400 kts | 255° |
| 2026-02-17 15:25 | 40.94329 | 27.11653 | 31951 ft | 399 kts | 255° |
| 2026-02-17 15:25 | 40.93880 | 27.08015 | 32303 ft | 399 kts | 254° |
| 2026-02-17 15:25 | 40.93437 | 27.04437 | 32668 ft | 397 kts | 254° |
| 2026-02-17 15:25 | 40.92989 | 27.00835 | 33067 ft | 395 kts | 254° |
| 2026-02-17 15:26 | 40.92565 | 26.97250 | 33404 ft | 396 kts | 256° |
| 2026-02-17 15:26 | 40.92283 | 26.93592 | 33399 ft | 402 kts | 258° |
| 2026-02-17 15:27 | 40.91695 | 26.82560 | 33413 ft | 400 kts | 259° |
| 2026-02-17 15:27 | 40.91295 | 26.75241 | 33410 ft | 397 kts | 258° |
| 2026-02-17 15:28 | 40.90869 | 26.67952 | 33414 ft | 397 kts | 258° |
| 2026-02-17 15:28 | 40.90434 | 26.60715 | 33413 ft | 398 kts | 258° |
| 2026-02-17 15:29 | 40.89989 | 26.53404 | 33406 ft | 400 kts | 258° |
| 2026-02-17 15:29 | 40.89539 | 26.46071 | 33401 ft | 402 kts | 258° |
| 2026-02-17 15:30 | 40.89081 | 26.38651 | 33397 ft | 404 kts | 258° |
| 2026-02-17 15:30 | 40.88621 | 26.31275 | 33383 ft | 406 kts | 258° |
| 2026-02-17 15:31 | 40.87821 | 26.20081 | 33373 ft | 406 kts | 256° |
| 2026-02-17 15:31 | 40.87074 | 26.12724 | 33363 ft | 408 kts | 256° |
| 2026-02-17 15:32 | 40.86327 | 26.05259 | 33366 ft | 410 kts | 256° |
| 2026-02-17 15:32 | 40.85591 | 25.97731 | 33370 ft | 420 kts | 256° |
| 2026-02-17 15:33 | 40.84758 | 25.89991 | 33370 ft | 428 kts | 255° |
| 2026-02-17 15:33 | 40.83790 | 25.82228 | 33353 ft | 431 kts | 255° |
| 2026-02-17 15:34 | 40.82817 | 25.74405 | 33362 ft | 433 kts | 255° |
| 2026-02-17 15:35 | 40.81366 | 25.62600 | 33366 ft | 434 kts | 255° |
| 2026-02-17 15:35 | 40.80392 | 25.54701 | 33363 ft | 435 kts | 255° |
| 2026-02-17 15:36 | 40.79419 | 25.46861 | 33363 ft | 435 kts | 255° |
| 2026-02-17 15:36 | 40.78432 | 25.38967 | 33359 ft | 436 kts | 255° |
| 2026-02-17 15:37 | 40.77439 | 25.31092 | 33358 ft | 436 kts | 256° |
| 2026-02-17 15:37 | 40.76440 | 25.23197 | 33356 ft | 437 kts | 256° |
| 2026-02-17 15:38 | 40.75440 | 25.15333 | 33354 ft | 438 kts | 256° |
| 2026-02-17 15:38 | 40.74423 | 25.07380 | 33353 ft | 438 kts | 256° |
| 2026-02-17 15:39 | 40.72886 | 24.95485 | 33349 ft | 440 kts | 256° |
| 2026-02-17 15:39 | 40.71851 | 24.87527 | 33343 ft | 440 kts | 256° |
| 2026-02-17 15:40 | 40.70810 | 24.79553 | 33343 ft | 441 kts | 256° |
| 2026-02-17 15:40 | 40.69256 | 24.71822 | 33334 ft | 435 kts | 243° |
| 2026-02-17 15:41 | 40.66746 | 24.64588 | 33340 ft | 435 kts | 242° |
| 2026-02-17 15:41 | 40.64173 | 24.57317 | 33350 ft | 436 kts | 242° |
| 2026-02-17 15:42 | 40.61624 | 24.50049 | 33344 ft | 438 kts | 242° |
| 2026-02-17 15:43 | 40.57827 | 24.39144 | 33340 ft | 439 kts | 243° |
| 2026-02-17 15:43 | 40.55278 | 24.31827 | 33341 ft | 439 kts | 243° |
| 2026-02-17 15:44 | 40.52737 | 24.24554 | 33339 ft | 440 kts | 243° |
| 2026-02-17 15:44 | 40.50169 | 24.17221 | 33340 ft | 440 kts | 243° |
| 2026-02-17 15:45 | 40.47618 | 24.09959 | 33343 ft | 440 kts | 243° |
| 2026-02-17 15:45 | 40.45040 | 24.02638 | 33338 ft | 440 kts | 243° |
| 2026-02-17 15:46 | 40.42478 | 23.95383 | 33336 ft | 440 kts | 243° |
| 2026-02-17 15:46 | 40.39900 | 23.88098 | 33337 ft | 440 kts | 243° |
| 2026-02-17 15:47 | 40.36021 | 23.77175 | 33340 ft | 440 kts | 243° |
| 2026-02-17 15:47 | 40.33450 | 23.69957 | 33339 ft | 441 kts | 243° |
| 2026-02-17 15:48 | 40.30837 | 23.62638 | 33334 ft | 441 kts | 244° |
| 2026-02-17 15:48 | 40.28241 | 23.55387 | 33349 ft | 441 kts | 244° |
| 2026-02-17 15:49 | 40.25625 | 23.48099 | 33346 ft | 442 kts | 244° |
| 2026-02-17 15:49 | 40.22999 | 23.40801 | 33349 ft | 442 kts | 244° |
| 2026-02-17 15:50 | 40.20373 | 23.33521 | 33355 ft | 443 kts | 244° |
| 2026-02-17 15:51 | 40.16427 | 23.22614 | 33358 ft | 444 kts | 244° |
| 2026-02-17 15:51 | 40.14216 | 23.16523 | 33356 ft | 444 kts | 244° |
| 2026-02-17 15:52 | 40.11555 | 23.09206 | 33363 ft | 445 kts | 244° |
| 2026-02-17 15:52 | 40.08909 | 23.01949 | 33367 ft | 446 kts | 244° |
| 2026-02-17 15:53 | 40.06234 | 22.94633 | 33367 ft | 446 kts | 244° |
| 2026-02-17 15:53 | 40.03540 | 22.87281 | 33371 ft | 447 kts | 244° |
| 2026-02-17 15:54 | 40.00865 | 22.80002 | 33372 ft | 447 kts | 244° |
| 2026-02-17 15:54 | 39.96826 | 22.69043 | 33375 ft | 447 kts | 245° |
| 2026-02-17 15:55 | 39.94143 | 22.61785 | 33374 ft | 447 kts | 245° |
| 2026-02-17 15:55 | 39.91428 | 22.54458 | 33374 ft | 446 kts | 245° |
| 2026-02-17 15:56 | 39.88724 | 22.47181 | 33387 ft | 445 kts | 245° |
| 2026-02-17 15:56 | 39.86034 | 22.39958 | 33380 ft | 445 kts | 245° |
| 2026-02-17 15:57 | 39.83341 | 22.32746 | 33384 ft | 445 kts | 245° |
| 2026-02-17 15:57 | 39.80614 | 22.25459 | 33382 ft | 445 kts | 245° |
| 2026-02-17 15:58 | 39.77919 | 22.18275 | 33398 ft | 445 kts | 245° |
| 2026-02-17 15:59 | 39.73829 | 22.07407 | 33391 ft | 446 kts | 245° |
| 2026-02-17 15:59 | 39.71105 | 22.00191 | 33392 ft | 446 kts | 245° |
| 2026-02-17 16:00 | 39.68389 | 21.93016 | 33398 ft | 446 kts | 245° |
| 2026-02-17 16:00 | 39.65632 | 21.85746 | 33392 ft | 446 kts | 245° |
| 2026-02-17 16:01 | 39.62897 | 21.78553 | 33397 ft | 446 kts | 245° |
| 2026-02-17 16:01 | 39.60149 | 21.71345 | 33407 ft | 446 kts | 245° |
| 2026-02-17 16:02 | 39.57396 | 21.64138 | 33419 ft | 445 kts | 245° |
| 2026-02-17 16:02 | 39.53289 | 21.53423 | 33435 ft | 444 kts | 246° |
| 2026-02-17 16:03 | 39.50516 | 21.46210 | 33453 ft | 444 kts | 246° |
| 2026-02-17 16:03 | 39.47772 | 21.39087 | 33452 ft | 443 kts | 246° |
| 2026-02-17 16:04 | 39.45022 | 21.31965 | 33464 ft | 442 kts | 246° |
| 2026-02-17 16:04 | 39.42272 | 21.24864 | 33472 ft | 443 kts | 246° |
| 2026-02-17 16:05 | 39.39494 | 21.17707 | 33480 ft | 443 kts | 246° |
| 2026-02-17 16:05 | 39.36753 | 21.10657 | 33489 ft | 443 kts | 246° |
| 2026-02-17 16:06 | 39.33973 | 21.03526 | 33491 ft | 444 kts | 246° |
| 2026-02-17 16:07 | 39.29795 | 20.92840 | 33503 ft | 444 kts | 246° |
| 2026-02-17 16:07 | 39.26997 | 20.85705 | 33493 ft | 445 kts | 246° |
| 2026-02-17 16:08 | 39.24212 | 20.78621 | 33498 ft | 445 kts | 246° |
| 2026-02-17 16:08 | 39.20007 | 20.67956 | 33507 ft | 444 kts | 247° |
| 2026-02-17 16:09 | 39.17195 | 20.60843 | 33515 ft | 444 kts | 247° |
| 2026-02-17 16:09 | 39.14405 | 20.53804 | 33511 ft | 444 kts | 247° |
| 2026-02-17 16:10 | 39.11589 | 20.46715 | 33525 ft | 443 kts | 247° |
| 2026-02-17 16:11 | 39.07385 | 20.36165 | 33540 ft | 442 kts | 247° |
| 2026-02-17 16:11 | 39.04567 | 20.29111 | 33535 ft | 442 kts | 247° |
| 2026-02-17 16:12 | 39.01747 | 20.22069 | 33546 ft | 442 kts | 247° |
| 2026-02-17 16:12 | 38.98925 | 20.15038 | 33552 ft | 442 kts | 247° |
| 2026-02-17 16:13 | 38.96117 | 20.08057 | 33562 ft | 441 kts | 247° |
| 2026-02-17 16:13 | 38.93318 | 20.01115 | 33561 ft | 441 kts | 248° |
| 2026-02-17 16:14 | 38.90473 | 19.94076 | 33570 ft | 441 kts | 248° |
| 2026-02-17 16:14 | 38.86222 | 19.83585 | 33573 ft | 441 kts | 248° |
| 2026-02-17 16:15 | 38.83389 | 19.76617 | 33583 ft | 440 kts | 248° |
| 2026-02-17 16:15 | 38.80558 | 19.69666 | 33584 ft | 440 kts | 248° |
| 2026-02-17 16:16 | 38.77720 | 19.62715 | 33603 ft | 439 kts | 248° |
| 2026-02-17 16:16 | 38.74878 | 19.55767 | 33602 ft | 439 kts | 248° |
| 2026-02-17 16:17 | 38.72057 | 19.48888 | 33597 ft | 438 kts | 248° |
| 2026-02-17 16:17 | 38.69222 | 19.41991 | 33603 ft | 438 kts | 248° |
| 2026-02-17 16:18 | 38.66392 | 19.35119 | 33610 ft | 438 kts | 248° |
| 2026-02-17 16:19 | 38.62103 | 19.24735 | 33617 ft | 438 kts | 248° |